Airfield :
LOGIN :

Register | Disclaimer

   EN    FR    IT 

 










Legend :    VFR   Marginal VFR   IFR   Intensive IFR   Very Intensive IFR
Visi :
Ceiling :
>= 8 km
>= 3000ft
5 to 8 km
1000 to 3000 ft
1500m to 5 km
500 to 1000 ft
800 to 1500m
200 to 500 ft
< 800m
< 200 ft
Symbols :   Thunderstorms  Fog  Heavy snow  Heavy precipitations  Wind > 20 kt
SIGMETs :     Misc.  Thunderstorms  Icing  Turbulence  Mountain Waves  Volcanic Ashes






- Airport Elevation : 1895 ft


LSMM - Meiringen

CURRENT METAR :
  • 101250Z AUTO 27005KT 240V340 9999NDV NCD 20/03 Q1022 RMK

EXPIRED METARs :
  • 101220Z AUTO 26005KT 230V320 9999NDV NCD 19/03 Q1022 RMK
  • 101150Z AUTO 27006KT 230V320 9999NDV NCD 19/03 Q1023 RMK
  • 101120Z AUTO 26006KT 200V320 9999NDV NCD 18/04 Q1023 RMK
  • 101050Z AUTO 25007KT 230V300 9999NDV NCD 17/03 Q1023 RMK
  • 101020Z AUTO 27008KT 250V320 9999NDV NCD 17/05 Q1023 RMK

Expired Forecast.



MET'MAP, your aeronautical weather chart ! - Copyright ORBIFLY December 2007 - Disclaimer

ORBIFLY MET'MAP TEAM :

Programming & Development : Alexandra Zaïnal
Concept & original design : Baudouin d'Aumeries
Assistance for programming : Marc-Olivier Méhu
Technical & hardware support : Manuel Goepfert

Contact : metmap@orbifly.com




SOURCES & CREDITS :

   NOAA